sensor_id;sensor_type;location;lat;lon;timestamp;temperature;humidity
1806;DHT22;901;48.142;11.516;2022-07-09T00:00:18;14.90;99.90
1806;DHT22;901;48.142;11.516;2022-07-09T00:02:46;14.90;99.90
1806;DHT22;901;48.142;11.516;2022-07-09T00:05:13;14.90;99.90
1806;DHT22;901;48.142;11.516;2022-07-09T00:07:40;14.80;99.90
1806;DHT22;901;48.142;11.516;2022-07-09T00:10:07;14.70;99.90
1806;DHT22;901;48.142;11.516;2022-07-09T00:12:34;14.70;99.90
1806;DHT22;901;48.142;11.516;2022-07-09T00:15:01;14.70;99.90
1806;DHT22;901;48.142;11.516;2022-07-09T00:17:28;14.70;99.90
1806;DHT22;901;48.142;11.516;2022-07-09T00:19:57;14.60;99.90
1806;DHT22;901;48.142;11.516;2022-07-09T00:22:24;14.60;99.90
1806;DHT22;901;48.142;11.516;2022-07-09T00:24:51;14.50;99.90
1806;DHT22;901;48.142;11.516;2022-07-09T00:27:18;14.40;99.90
1806;DHT22;901;48.142;11.516;2022-07-09T00:29:45;14.40;99.90
1806;DHT22;901;48.142;11.516;2022-07-09T00:32:12;14.30;99.90
1806;DHT22;901;48.142;11.516;2022-07-09T00:34:38;14.20;99.90
1806;DHT22;901;48.142;11.516;2022-07-09T00:37:07;14.10;99.90
1806;DHT22;901;48.142;11.516;2022-07-09T00:39:34;14.10;99.90
1806;DHT22;901;48.142;11.516;2022-07-09T00:42:04;14.00;99.90
1806;DHT22;901;48.142;11.516;2022-07-09T00:44:31;13.90;99.90
1806;DHT22;901;48.142;11.516;2022-07-09T00:46:58;13.90;99.90
1806;DHT22;901;48.142;11.516;2022-07-09T00:49:28;13.80;99.90
1806;DHT22;901;48.142;11.516;2022-07-09T00:51:56;13.80;99.90
1806;DHT22;901;48.142;11.516;2022-07-09T00:54:25;13.80;99.90
1806;DHT22;901;48.142;11.516;2022-07-09T00:56:52;13.70;99.90
1806;DHT22;901;48.142;11.516;2022-07-09T00:59:20;13.70;99.90
1806;DHT22;901;48.142;11.516;2022-07-09T01:01:49;13.70;99.90
1806;DHT22;901;48.142;11.516;2022-07-09T01:04:16;13.60;99.90
1806;DHT22;901;48.142;11.516;2022-07-09T01:06:43;13.60;99.90
1806;DHT22;901;48.142;11.516;2022-07-09T01:09:10;13.60;99.90
1806;DHT22;901;48.142;11.516;2022-07-09T01:11:38;13.60;99.90
1806;DHT22;901;48.142;11.516;2022-07-09T01:14:05;13.60;99.90
1806;DHT22;901;48.142;11.516;2022-07-09T01:16:33;13.60;99.90
1806;DHT22;901;48.142;11.516;2022-07-09T01:19:00;13.50;99.90
1806;DHT22;901;48.142;11.516;2022-07-09T01:21:29;13.50;99.90
1806;DHT22;901;48.142;11.516;2022-07-09T01:23:56;13.50;99.90
1806;DHT22;901;48.142;11.516;2022-07-09T01:26:23;13.50;99.90
1806;DHT22;901;48.142;11.516;2022-07-09T01:28:50;13.50;99.90
1806;DHT22;901;48.142;11.516;2022-07-09T01:31:17;13.50;99.90
1806;DHT22;901;48.142;11.516;2022-07-09T01:33:45;13.50;99.90
1806;DHT22;901;48.142;11.516;2022-07-09T01:36:12;13.50;99.90
1806;DHT22;901;48.142;11.516;2022-07-09T01:38:40;13.50;99.90
1806;DHT22;901;48.142;11.516;2022-07-09T01:41:07;13.50;99.90
1806;DHT22;901;48.142;11.516;2022-07-09T01:43:34;13.50;99.90
1806;DHT22;901;48.142;11.516;2022-07-09T01:46:01;13.50;99.90
1806;DHT22;901;48.142;11.516;2022-07-09T01:48:28;13.50;99.90
1806;DHT22;901;48.142;11.516;2022-07-09T01:50:55;13.50;99.90
1806;DHT22;901;48.142;11.516;2022-07-09T01:53:24;13.60;99.90
1806;DHT22;901;48.142;11.516;2022-07-09T01:55:52;13.50;99.90
1806;DHT22;901;48.142;11.516;2022-07-09T01:58:19;13.50;99.90
1806;DHT22;901;48.142;11.516;2022-07-09T02:00:46;13.50;99.90
1806;DHT22;901;48.142;11.516;2022-07-09T02:03:14;13.50;99.90
1806;DHT22;901;48.142;11.516;2022-07-09T02:05:41;13.50;99.90
1806;DHT22;901;48.142;11.516;2022-07-09T02:08:07;13.60;99.90
1806;DHT22;901;48.142;11.516;2022-07-09T02:10:34;13.50;99.90
1806;DHT22;901;48.142;11.516;2022-07-09T02:13:02;13.50;99.90
1806;DHT22;901;48.142;11.516;2022-07-09T02:15:29;13.50;99.90
1806;DHT22;901;48.142;11.516;2022-07-09T02:17:57;13.60;99.90
1806;DHT22;901;48.142;11.516;2022-07-09T02:20:24;13.50;99.90
1806;DHT22;901;48.142;11.516;2022-07-09T02:22:51;13.60;99.90
1806;DHT22;901;48.142;11.516;2022-07-09T02:25:18;13.70;99.90
1806;DHT22;901;48.142;11.516;2022-07-09T02:27:45;13.70;99.90
1806;DHT22;901;48.142;11.516;2022-07-09T02:30:13;13.70;99.90
1806;DHT22;901;48.142;11.516;2022-07-09T02:32:40;13.80;99.90
1806;DHT22;901;48.142;11.516;2022-07-09T02:35:07;13.80;99.90
1806;DHT22;901;48.142;11.516;2022-07-09T02:37:34;13.80;99.90
1806;DHT22;901;48.142;11.516;2022-07-09T02:40:02;13.90;99.90
1806;DHT22;901;48.142;11.516;2022-07-09T02:42:29;13.90;99.90
1806;DHT22;901;48.142;11.516;2022-07-09T02:44:56;13.90;99.90
1806;DHT22;901;48.142;11.516;2022-07-09T02:47:24;14.00;99.90
1806;DHT22;901;48.142;11.516;2022-07-09T02:49:51;14.00;99.90
1806;DHT22;901;48.142;11.516;2022-07-09T02:52:18;14.10;99.90
1806;DHT22;901;48.142;11.516;2022-07-09T02:54:45;14.10;99.90
1806;DHT22;901;48.142;11.516;2022-07-09T02:57:12;14.10;99.90
1806;DHT22;901;48.142;11.516;2022-07-09T02:59:39;14.20;99.90
1806;DHT22;901;48.142;11.516;2022-07-09T03:02:05;14.20;99.90
1806;DHT22;901;48.142;11.516;2022-07-09T03:04:33;14.20;99.90
1806;DHT22;901;48.142;11.516;2022-07-09T03:07:00;14.30;99.90
1806;DHT22;901;48.142;11.516;2022-07-09T03:09:28;14.30;99.90
1806;DHT22;901;48.142;11.516;2022-07-09T03:11:55;14.40;99.90
1806;DHT22;901;48.142;11.516;2022-07-09T03:14:22;14.40;99.90
1806;DHT22;901;48.142;11.516;2022-07-09T03:16:48;14.40;99.90
1806;DHT22;901;48.142;11.516;2022-07-09T03:19:15;14.40;99.90
1806;DHT22;901;48.142;11.516;2022-07-09T03:21:43;14.50;99.90
1806;DHT22;901;48.142;11.516;2022-07-09T03:24:10;14.50;99.90
1806;DHT22;901;48.142;11.516;2022-07-09T03:26:38;14.60;99.90
1806;DHT22;901;48.142;11.516;2022-07-09T03:29:04;14.60;99.90
1806;DHT22;901;48.142;11.516;2022-07-09T03:31:32;14.60;99.90
1806;DHT22;901;48.142;11.516;2022-07-09T03:34:00;14.60;99.90
1806;DHT22;901;48.142;11.516;2022-07-09T03:36:27;14.70;99.90
1806;DHT22;901;48.142;11.516;2022-07-09T03:38:55;14.70;99.90
1806;DHT22;901;48.142;11.516;2022-07-09T03:41:22;14.80;99.90
1806;DHT22;901;48.142;11.516;2022-07-09T03:43:49;14.80;99.90
1806;DHT22;901;48.142;11.516;2022-07-09T03:46:16;14.80;99.90
1806;DHT22;901;48.142;11.516;2022-07-09T03:48:42;14.90;99.90
1806;DHT22;901;48.142;11.516;2022-07-09T03:51:10;14.90;99.90
1806;DHT22;901;48.142;11.516;2022-07-09T03:53:36;14.90;99.90
1806;DHT22;901;48.142;11.516;2022-07-09T03:56:06;14.90;99.90
1806;DHT22;901;48.142;11.516;2022-07-09T03:58:33;14.80;99.90
1806;DHT22;901;48.142;11.516;2022-07-09T04:01:01;14.70;99.90
1806;DHT22;901;48.142;11.516;2022-07-09T04:03:28;14.60;99.90
1806;DHT22;901;48.142;11.516;2022-07-09T04:05:55;14.60;99.90
1806;DHT22;901;48.142;11.516;2022-07-09T04:08:21;14.60;99.90
1806;DHT22;901;48.142;11.516;2022-07-09T04:10:48;14.70;99.90
1806;DHT22;901;48.142;11.516;2022-07-09T04:13:16;14.80;99.90
1806;DHT22;901;48.142;11.516;2022-07-09T04:15:43;14.90;99.90
1806;DHT22;901;48.142;11.516;2022-07-09T04:18:11;15.00;99.90
1806;DHT22;901;48.142;11.516;2022-07-09T04:20:38;15.10;99.90
1806;DHT22;901;48.142;11.516;2022-07-09T04:23:05;15.30;99.90
1806;DHT22;901;48.142;11.516;2022-07-09T04:25:31;15.40;99.90
1806;DHT22;901;48.142;11.516;2022-07-09T04:27:58;15.50;99.90
1806;DHT22;901;48.142;11.516;2022-07-09T04:30:27;15.60;99.90
1806;DHT22;901;48.142;11.516;2022-07-09T04:32:54;15.70;99.90
1806;DHT22;901;48.142;11.516;2022-07-09T04:35:21;15.80;99.90
1806;DHT22;901;48.142;11.516;2022-07-09T04:37:47;15.90;99.90
1806;DHT22;901;48.142;11.516;2022-07-09T04:40:14;16.00;99.90
1806;DHT22;901;48.142;11.516;2022-07-09T04:42:41;16.10;99.90
1806;DHT22;901;48.142;11.516;2022-07-09T04:45:09;16.20;99.90
1806;DHT22;901;48.142;11.516;2022-07-09T04:47:38;16.20;99.90
1806;DHT22;901;48.142;11.516;2022-07-09T04:50:05;16.30;99.90
1806;DHT22;901;48.142;11.516;2022-07-09T04:52:32;16.30;99.90
1806;DHT22;901;48.142;11.516;2022-07-09T04:54:59;16.40;99.90
1806;DHT22;901;48.142;11.516;2022-07-09T04:57:26;16.40;99.90
1806;DHT22;901;48.142;11.516;2022-07-09T04:59:56;16.40;99.90
1806;DHT22;901;48.142;11.516;2022-07-09T05:02:23;16.50;99.90
1806;DHT22;901;48.142;11.516;2022-07-09T05:04:52;16.50;99.90
1806;DHT22;901;48.142;11.516;2022-07-09T05:07:18;16.60;99.90
1806;DHT22;901;48.142;11.516;2022-07-09T05:09:45;16.60;99.90
1806;DHT22;901;48.142;11.516;2022-07-09T05:12:12;16.70;99.90
1806;DHT22;901;48.142;11.516;2022-07-09T05:14:39;16.80;99.90
1806;DHT22;901;48.142;11.516;2022-07-09T05:17:06;16.90;99.90
1806;DHT22;901;48.142;11.516;2022-07-09T05:19:33;17.00;99.90
1806;DHT22;901;48.142;11.516;2022-07-09T05:22:01;17.10;99.90
1806;DHT22;901;48.142;11.516;2022-07-09T05:24:28;17.20;99.90
1806;DHT22;901;48.142;11.516;2022-07-09T05:26:55;17.30;99.90
1806;DHT22;901;48.142;11.516;2022-07-09T05:29:22;17.40;99.90
1806;DHT22;901;48.142;11.516;2022-07-09T05:31:50;17.50;99.90
1806;DHT22;901;48.142;11.516;2022-07-09T05:34:16;17.70;99.90
1806;DHT22;901;48.142;11.516;2022-07-09T05:36:43;17.80;99.90
1806;DHT22;901;48.142;11.516;2022-07-09T05:39:11;17.90;99.90
1806;DHT22;901;48.142;11.516;2022-07-09T05:41:38;18.00;99.90
1806;DHT22;901;48.142;11.516;2022-07-09T05:44:05;18.20;99.90
1806;DHT22;901;48.142;11.516;2022-07-09T05:46:32;18.20;99.90
1806;DHT22;901;48.142;11.516;2022-07-09T05:48:59;18.30;99.90
1806;DHT22;901;48.142;11.516;2022-07-09T05:51:26;18.50;99.90
1806;DHT22;901;48.142;11.516;2022-07-09T05:53:53;18.60;99.90
1806;DHT22;901;48.142;11.516;2022-07-09T05:56:21;18.70;99.90
1806;DHT22;901;48.142;11.516;2022-07-09T05:58:48;18.80;99.90
1806;DHT22;901;48.142;11.516;2022-07-09T06:01:15;19.00;99.90
1806;DHT22;901;48.142;11.516;2022-07-09T06:03:42;19.10;99.90
1806;DHT22;901;48.142;11.516;2022-07-09T06:06:09;19.30;99.90
1806;DHT22;901;48.142;11.516;2022-07-09T06:08:36;19.40;99.90
1806;DHT22;901;48.142;11.516;2022-07-09T06:11:03;19.50;99.90
1806;DHT22;901;48.142;11.516;2022-07-09T06:13:31;19.50;99.90
1806;DHT22;901;48.142;11.516;2022-07-09T06:15:58;19.70;99.90
1806;DHT22;901;48.142;11.516;2022-07-09T06:18:25;19.70;99.90
1806;DHT22;901;48.142;11.516;2022-07-09T06:20:52;19.70;99.90
1806;DHT22;901;48.142;11.516;2022-07-09T06:23:19;19.70;99.90
1806;DHT22;901;48.142;11.516;2022-07-09T06:25:47;19.70;99.90
1806;DHT22;901;48.142;11.516;2022-07-09T06:28:14;19.20;99.90
1806;DHT22;901;48.142;11.516;2022-07-09T06:30:42;18.80;99.90
1806;DHT22;901;48.142;11.516;2022-07-09T06:33:09;18.70;99.90
1806;DHT22;901;48.142;11.516;2022-07-09T06:35:36;18.60;99.90
1806;DHT22;901;48.142;11.516;2022-07-09T06:38:03;18.50;99.90
1806;DHT22;901;48.142;11.516;2022-07-09T06:40:30;18.50;99.90
1806;DHT22;901;48.142;11.516;2022-07-09T06:42:56;18.50;99.90
1806;DHT22;901;48.142;11.516;2022-07-09T06:45:24;18.50;99.90
1806;DHT22;901;48.142;11.516;2022-07-09T06:47:52;18.40;99.90
1806;DHT22;901;48.142;11.516;2022-07-09T06:50:19;18.30;99.90
1806;DHT22;901;48.142;11.516;2022-07-09T06:52:46;18.30;99.90
1806;DHT22;901;48.142;11.516;2022-07-09T06:55:13;18.40;99.90
1806;DHT22;901;48.142;11.516;2022-07-09T06:57:40;18.60;99.90
1806;DHT22;901;48.142;11.516;2022-07-09T07:00:07;18.60;99.90
1806;DHT22;901;48.142;11.516;2022-07-09T07:02:34;18.50;99.90
1806;DHT22;901;48.142;11.516;2022-07-09T07:05:03;18.20;99.90
1806;DHT22;901;48.142;11.516;2022-07-09T07:07:30;18.30;99.90
1806;DHT22;901;48.142;11.516;2022-07-09T07:09:57;18.50;99.90
1806;DHT22;901;48.142;11.516;2022-07-09T07:12:24;18.70;99.90
1806;DHT22;901;48.142;11.516;2022-07-09T07:14:51;18.80;99.90
1806;DHT22;901;48.142;11.516;2022-07-09T07:17:18;19.00;99.90
1806;DHT22;901;48.142;11.516;2022-07-09T07:19:45;19.20;99.90
1806;DHT22;901;48.142;11.516;2022-07-09T07:22:13;19.40;99.90
1806;DHT22;901;48.142;11.516;2022-07-09T07:24:40;19.60;99.90
1806;DHT22;901;48.142;11.516;2022-07-09T07:27:07;19.90;99.90
1806;DHT22;901;48.142;11.516;2022-07-09T07:29:33;20.20;99.90
1806;DHT22;901;48.142;11.516;2022-07-09T07:32:00;20.50;99.90
1806;DHT22;901;48.142;11.516;2022-07-09T07:34:27;20.80;99.90
1806;DHT22;901;48.142;11.516;2022-07-09T07:36:54;21.20;99.90
1806;DHT22;901;48.142;11.516;2022-07-09T07:39:22;21.50;99.90
1806;DHT22;901;48.142;11.516;2022-07-09T07:41:52;21.80;99.90
1806;DHT22;901;48.142;11.516;2022-07-09T07:44:19;22.00;99.90
1806;DHT22;901;48.142;11.516;2022-07-09T07:46:46;22.30;99.90
1806;DHT22;901;48.142;11.516;2022-07-09T07:49:13;22.50;99.90
1806;DHT22;901;48.142;11.516;2022-07-09T07:51:40;22.80;99.90
1806;DHT22;901;48.142;11.516;2022-07-09T07:54:08;23.10;99.90
1806;DHT22;901;48.142;11.516;2022-07-09T07:56:36;23.30;99.90
1806;DHT22;901;48.142;11.516;2022-07-09T07:59:05;23.40;99.90
1806;DHT22;901;48.142;11.516;2022-07-09T08:01:32;23.40;99.90
1806;DHT22;901;48.142;11.516;2022-07-09T08:03:58;23.20;99.90
1806;DHT22;901;48.142;11.516;2022-07-09T08:06:25;23.20;99.90
1806;DHT22;901;48.142;11.516;2022-07-09T08:08:52;23.20;99.90
1806;DHT22;901;48.142;11.516;2022-07-09T08:11:19;23.30;99.90
1806;DHT22;901;48.142;11.516;2022-07-09T08:13:47;23.30;99.90
1806;DHT22;901;48.142;11.516;2022-07-09T08:16:14;23.50;99.90
1806;DHT22;901;48.142;11.516;2022-07-09T08:18:41;23.50;99.90
1806;DHT22;901;48.142;11.516;2022-07-09T08:21:08;23.70;99.90
1806;DHT22;901;48.142;11.516;2022-07-09T08:23:34;23.90;99.90
1806;DHT22;901;48.142;11.516;2022-07-09T08:26:17;24.20;99.90
1806;DHT22;901;48.142;11.516;2022-07-09T08:28:44;24.50;99.90
1806;DHT22;901;48.142;11.516;2022-07-09T08:31:12;24.80;99.90
1806;DHT22;901;48.142;11.516;2022-07-09T08:33:39;24.80;99.90
1806;DHT22;901;48.142;11.516;2022-07-09T08:36:06;24.80;99.90
1806;DHT22;901;48.142;11.516;2022-07-09T08:38:33;24.30;99.90
1806;DHT22;901;48.142;11.516;2022-07-09T08:41:01;23.90;99.90
1806;DHT22;901;48.142;11.516;2022-07-09T08:43:32;23.80;99.90
1806;DHT22;901;48.142;11.516;2022-07-09T08:45:59;23.70;99.90
1806;DHT22;901;48.142;11.516;2022-07-09T08:48:27;23.30;99.90
1806;DHT22;901;48.142;11.516;2022-07-09T08:50:55;23.10;99.90
1806;DHT22;901;48.142;11.516;2022-07-09T08:53:24;23.20;99.90
1806;DHT22;901;48.142;11.516;2022-07-09T08:55:53;23.30;99.90
1806;DHT22;901;48.142;11.516;2022-07-09T08:58:20;23.30;99.90
1806;DHT22;901;48.142;11.516;2022-07-09T09:00:48;23.50;99.90
1806;DHT22;901;48.142;11.516;2022-07-09T09:03:16;23.70;99.90
1806;DHT22;901;48.142;11.516;2022-07-09T09:05:44;23.80;99.90
1806;DHT22;901;48.142;11.516;2022-07-09T09:08:19;23.90;99.90
1806;DHT22;901;48.142;11.516;2022-07-09T09:10:47;23.60;99.90
1806;DHT22;901;48.142;11.516;2022-07-09T09:13:15;23.60;99.90
1806;DHT22;901;48.142;11.516;2022-07-09T09:15:42;23.70;99.90
1806;DHT22;901;48.142;11.516;2022-07-09T09:18:09;23.90;99.90
1806;DHT22;901;48.142;11.516;2022-07-09T09:20:37;24.10;99.90
1806;DHT22;901;48.142;11.516;2022-07-09T09:23:06;24.20;99.90
1806;DHT22;901;48.142;11.516;2022-07-09T09:25:37;24.30;99.90
1806;DHT22;901;48.142;11.516;2022-07-09T09:28:18;24.50;99.90
1806;DHT22;901;48.142;11.516;2022-07-09T09:30:45;24.60;99.90
1806;DHT22;901;48.142;11.516;2022-07-09T09:33:14;24.60;99.90
1806;DHT22;901;48.142;11.516;2022-07-09T09:35:44;24.60;99.90
1806;DHT22;901;48.142;11.516;2022-07-09T09:38:12;24.30;98.70
1806;DHT22;901;48.142;11.516;2022-07-09T09:40:45;24.00;99.90
1806;DHT22;901;48.142;11.516;2022-07-09T09:43:13;23.80;99.90
1806;DHT22;901;48.142;11.516;2022-07-09T09:45:41;23.70;99.90
1806;DHT22;901;48.142;11.516;2022-07-09T09:48:08;23.90;99.90
1806;DHT22;901;48.142;11.516;2022-07-09T09:50:35;24.20;99.90
1806;DHT22;901;48.142;11.516;2022-07-09T09:53:03;24.50;99.80
1806;DHT22;901;48.142;11.516;2022-07-09T09:55:32;24.50;99.90
1806;DHT22;901;48.142;11.516;2022-07-09T09:57:59;24.50;99.00
1806;DHT22;901;48.142;11.516;2022-07-09T10:00:26;24.10;98.20
1806;DHT22;901;48.142;11.516;2022-07-09T10:02:53;23.80;98.30
1806;DHT22;901;48.142;11.516;2022-07-09T10:05:20;23.70;98.40
1806;DHT22;901;48.142;11.516;2022-07-09T10:07:47;23.80;98.70
1806;DHT22;901;48.142;11.516;2022-07-09T10:10:18;24.20;98.10
1806;DHT22;901;48.142;11.516;2022-07-09T10:12:47;24.80;97.80
1806;DHT22;901;48.142;11.516;2022-07-09T10:15:22;25.60;97.50
1806;DHT22;901;48.142;11.516;2022-07-09T10:17:49;25.80;97.40
1806;DHT22;901;48.142;11.516;2022-07-09T10:20:16;25.60;96.90
1806;DHT22;901;48.142;11.516;2022-07-09T10:22:44;24.90;97.60
1806;DHT22;901;48.142;11.516;2022-07-09T10:25:13;24.80;98.50
1806;DHT22;901;48.142;11.516;2022-07-09T10:27:50;24.80;97.40
1806;DHT22;901;48.142;11.516;2022-07-09T10:30:27;24.30;97.50
1806;DHT22;901;48.142;11.516;2022-07-09T10:33:04;23.80;97.40
1806;DHT22;901;48.142;11.516;2022-07-09T10:35:39;23.70;98.70
1806;DHT22;901;48.142;11.516;2022-07-09T10:38:06;23.30;99.00
1806;DHT22;901;48.142;11.516;2022-07-09T10:40:38;22.90;99.10
1806;DHT22;901;48.142;11.516;2022-07-09T10:43:06;22.70;99.70
1806;DHT22;901;48.142;11.516;2022-07-09T10:45:37;22.80;99.10
1806;DHT22;901;48.142;11.516;2022-07-09T10:48:07;23.10;99.20
1806;DHT22;901;48.142;11.516;2022-07-09T10:50:37;23.40;98.90
1806;DHT22;901;48.142;11.516;2022-07-09T10:53:05;23.70;97.80
1806;DHT22;901;48.142;11.516;2022-07-09T10:55:32;23.70;97.90
1806;DHT22;901;48.142;11.516;2022-07-09T10:57:59;23.70;97.90
1806;DHT22;901;48.142;11.516;2022-07-09T11:00:30;24.00;98.20
1806;DHT22;901;48.142;11.516;2022-07-09T11:02:59;24.40;96.30
1806;DHT22;901;48.142;11.516;2022-07-09T11:05:28;24.50;95.80
1806;DHT22;901;48.142;11.516;2022-07-09T11:07:57;24.80;96.50
1806;DHT22;901;48.142;11.516;2022-07-09T11:10:24;24.90;97.00
1806;DHT22;901;48.142;11.516;2022-07-09T11:12:52;25.10;95.40
1806;DHT22;901;48.142;11.516;2022-07-09T11:15:20;24.80;96.50
1806;DHT22;901;48.142;11.516;2022-07-09T11:18:00;24.90;94.50
1806;DHT22;901;48.142;11.516;2022-07-09T11:20:28;25.00;93.30
1806;DHT22;901;48.142;11.516;2022-07-09T11:22:56;25.20;93.90
1806;DHT22;901;48.142;11.516;2022-07-09T11:25:25;25.60;95.00
1806;DHT22;901;48.142;11.516;2022-07-09T11:27:53;26.10;94.20
1806;DHT22;901;48.142;11.516;2022-07-09T11:30:20;26.50;94.10
1806;DHT22;901;48.142;11.516;2022-07-09T11:32:47;26.10;95.00
1806;DHT22;901;48.142;11.516;2022-07-09T11:35:25;25.40;95.30
1806;DHT22;901;48.142;11.516;2022-07-09T11:37:52;24.90;95.70
1806;DHT22;901;48.142;11.516;2022-07-09T11:40:20;24.60;96.20
1806;DHT22;901;48.142;11.516;2022-07-09T11:42:47;24.60;96.80
1806;DHT22;901;48.142;11.516;2022-07-09T11:45:19;24.80;96.20
1806;DHT22;901;48.142;11.516;2022-07-09T11:47:46;25.00;96.00
1806;DHT22;901;48.142;11.516;2022-07-09T11:50:14;25.30;95.80
1806;DHT22;901;48.142;11.516;2022-07-09T11:52:47;25.70;94.70
1806;DHT22;901;48.142;11.516;2022-07-09T11:55:16;26.10;94.40
1806;DHT22;901;48.142;11.516;2022-07-09T11:57:54;26.70;93.50
1806;DHT22;901;48.142;11.516;2022-07-09T12:00:23;27.30;92.10
1806;DHT22;901;48.142;11.516;2022-07-09T12:02:51;27.90;90.80
1806;DHT22;901;48.142;11.516;2022-07-09T12:05:26;28.40;88.90
1806;DHT22;901;48.142;11.516;2022-07-09T12:07:57;28.80;86.50
1806;DHT22;901;48.142;11.516;2022-07-09T12:10:26;29.10;84.40
1806;DHT22;901;48.142;11.516;2022-07-09T12:12:53;29.40;82.70
1806;DHT22;901;48.142;11.516;2022-07-09T12:15:20;29.60;80.70
1806;DHT22;901;48.142;11.516;2022-07-09T12:17:51;29.70;80.30
1806;DHT22;901;48.142;11.516;2022-07-09T12:20:20;28.90;80.50
1806;DHT22;901;48.142;11.516;2022-07-09T12:22:47;28.10;82.30
1806;DHT22;901;48.142;11.516;2022-07-09T12:25:16;27.40;84.20
1806;DHT22;901;48.142;11.516;2022-07-09T12:27:43;27.10;86.40
1806;DHT22;901;48.142;11.516;2022-07-09T12:30:10;26.80;86.60
1806;DHT22;901;48.142;11.516;2022-07-09T12:32:37;27.00;85.90
1806;DHT22;901;48.142;11.516;2022-07-09T12:35:05;26.80;84.60
1806;DHT22;901;48.142;11.516;2022-07-09T12:37:32;26.80;86.40
1806;DHT22;901;48.142;11.516;2022-07-09T12:39:59;26.60;83.00
1806;DHT22;901;48.142;11.516;2022-07-09T12:42:27;26.60;84.60
1806;DHT22;901;48.142;11.516;2022-07-09T12:44:54;26.70;84.20
1806;DHT22;901;48.142;11.516;2022-07-09T12:47:21;27.20;83.50
1806;DHT22;901;48.142;11.516;2022-07-09T12:49:48;27.70;81.00
1806;DHT22;901;48.142;11.516;2022-07-09T12:52:15;27.90;80.50
1806;DHT22;901;48.142;11.516;2022-07-09T12:54:42;28.20;80.10
1806;DHT22;901;48.142;11.516;2022-07-09T12:57:09;28.10;81.20
1806;DHT22;901;48.142;11.516;2022-07-09T12:59:38;27.30;83.90
1806;DHT22;901;48.142;11.516;2022-07-09T13:02:05;26.70;86.10
1806;DHT22;901;48.142;11.516;2022-07-09T13:04:32;26.10;88.00
1806;DHT22;901;48.142;11.516;2022-07-09T13:06:59;26.10;87.50
1806;DHT22;901;48.142;11.516;2022-07-09T13:09:26;25.80;87.70
1806;DHT22;901;48.142;11.516;2022-07-09T13:11:53;25.90;88.00
1806;DHT22;901;48.142;11.516;2022-07-09T13:14:20;26.10;87.10
1806;DHT22;901;48.142;11.516;2022-07-09T13:16:48;26.30;87.80
1806;DHT22;901;48.142;11.516;2022-07-09T13:19:15;26.70;87.20
1806;DHT22;901;48.142;11.516;2022-07-09T13:21:42;27.30;85.60
1806;DHT22;901;48.142;11.516;2022-07-09T13:24:09;27.90;84.70
1806;DHT22;901;48.142;11.516;2022-07-09T13:26:36;28.40;83.50
1806;DHT22;901;48.142;11.516;2022-07-09T13:29:03;28.70;82.40
1806;DHT22;901;48.142;11.516;2022-07-09T13:31:29;28.80;81.00
1806;DHT22;901;48.142;11.516;2022-07-09T13:33:58;28.40;81.50
1806;DHT22;901;48.142;11.516;2022-07-09T13:36:25;28.10;82.10
1806;DHT22;901;48.142;11.516;2022-07-09T13:38:51;28.10;82.80
1806;DHT22;901;48.142;11.516;2022-07-09T13:41:18;28.10;81.40
1806;DHT22;901;48.142;11.516;2022-07-09T13:43:45;27.90;81.80
1806;DHT22;901;48.142;11.516;2022-07-09T13:46:12;27.70;82.10
1806;DHT22;901;48.142;11.516;2022-07-09T13:48:40;27.60;82.10
1806;DHT22;901;48.142;11.516;2022-07-09T13:51:08;27.50;82.10
1806;DHT22;901;48.142;11.516;2022-07-09T13:53:35;27.50;81.90
1806;DHT22;901;48.142;11.516;2022-07-09T13:56:02;27.30;82.20
1806;DHT22;901;48.142;11.516;2022-07-09T13:58:30;26.70;84.00
1806;DHT22;901;48.142;11.516;2022-07-09T14:00:56;26.60;84.80
1806;DHT22;901;48.142;11.516;2022-07-09T14:03:23;26.80;84.70
1806;DHT22;901;48.142;11.516;2022-07-09T14:05:50;26.90;84.20
1806;DHT22;901;48.142;11.516;2022-07-09T14:08:18;26.40;85.70
1806;DHT22;901;48.142;11.516;2022-07-09T14:10:48;25.90;86.40
1806;DHT22;901;48.142;11.516;2022-07-09T14:13:16;26.00;88.10
1806;DHT22;901;48.142;11.516;2022-07-09T14:15:43;26.30;87.00
1806;DHT22;901;48.142;11.516;2022-07-09T14:18:11;26.30;86.80
1806;DHT22;901;48.142;11.516;2022-07-09T14:20:38;25.70;87.00
1806;DHT22;901;48.142;11.516;2022-07-09T14:23:05;25.50;87.30
1806;DHT22;901;48.142;11.516;2022-07-09T14:25:33;25.50;88.30
1806;DHT22;901;48.142;11.516;2022-07-09T14:28:00;25.70;87.00
1806;DHT22;901;48.142;11.516;2022-07-09T14:30:27;26.10;85.80
1806;DHT22;901;48.142;11.516;2022-07-09T14:32:54;26.00;86.80
1806;DHT22;901;48.142;11.516;2022-07-09T14:35:21;25.80;85.90
1806;DHT22;901;48.142;11.516;2022-07-09T14:37:48;25.70;85.50
1806;DHT22;901;48.142;11.516;2022-07-09T14:40:15;25.70;86.80
1806;DHT22;901;48.142;11.516;2022-07-09T14:42:43;25.70;85.60
1806;DHT22;901;48.142;11.516;2022-07-09T14:45:10;25.90;85.60
1806;DHT22;901;48.142;11.516;2022-07-09T14:47:38;26.10;86.00
1806;DHT22;901;48.142;11.516;2022-07-09T14:50:05;26.20;85.40
1806;DHT22;901;48.142;11.516;2022-07-09T14:52:32;26.10;85.10
1806;DHT22;901;48.142;11.516;2022-07-09T14:54:59;26.20;85.50
1806;DHT22;901;48.142;11.516;2022-07-09T14:57:26;26.20;86.30
1806;DHT22;901;48.142;11.516;2022-07-09T14:59:54;26.00;86.40
1806;DHT22;901;48.142;11.516;2022-07-09T15:02:22;25.80;88.70
1806;DHT22;901;48.142;11.516;2022-07-09T15:04:48;25.40;90.00
1806;DHT22;901;48.142;11.516;2022-07-09T15:07:15;25.40;88.10
1806;DHT22;901;48.142;11.516;2022-07-09T15:09:42;25.20;88.30
1806;DHT22;901;48.142;11.516;2022-07-09T15:12:09;25.30;88.60
1806;DHT22;901;48.142;11.516;2022-07-09T15:14:36;25.20;89.70
1806;DHT22;901;48.142;11.516;2022-07-09T15:17:05;25.10;90.00
1806;DHT22;901;48.142;11.516;2022-07-09T15:19:32;24.90;90.70
1806;DHT22;901;48.142;11.516;2022-07-09T15:21:59;24.70;90.50
1806;DHT22;901;48.142;11.516;2022-07-09T15:24:26;24.70;91.10
1806;DHT22;901;48.142;11.516;2022-07-09T15:26:54;25.00;90.80
1806;DHT22;901;48.142;11.516;2022-07-09T15:29:21;25.40;90.60
1806;DHT22;901;48.142;11.516;2022-07-09T15:31:47;25.20;88.80
1806;DHT22;901;48.142;11.516;2022-07-09T15:34:16;25.00;88.40
1806;DHT22;901;48.142;11.516;2022-07-09T15:36:42;25.10;88.00
1806;DHT22;901;48.142;11.516;2022-07-09T15:39:09;24.90;87.90
1806;DHT22;901;48.142;11.516;2022-07-09T15:41:36;24.90;88.60
1806;DHT22;901;48.142;11.516;2022-07-09T15:44:03;25.10;87.90
1806;DHT22;901;48.142;11.516;2022-07-09T15:46:31;25.20;89.90
1806;DHT22;901;48.142;11.516;2022-07-09T15:48:58;25.00;90.00
1806;DHT22;901;48.142;11.516;2022-07-09T15:51:26;24.90;90.20
1806;DHT22;901;48.142;11.516;2022-07-09T15:53:53;24.90;90.20
1806;DHT22;901;48.142;11.516;2022-07-09T15:56:20;24.80;90.90
1806;DHT22;901;48.142;11.516;2022-07-09T15:58:49;24.80;90.40
1806;DHT22;901;48.142;11.516;2022-07-09T16:01:16;24.60;90.60
1806;DHT22;901;48.142;11.516;2022-07-09T16:03:43;24.70;90.70